createdAt,value
2023-04-06T00:02:14.343Z,101249.47
2023-04-06T00:04:41.940Z,101252.25
2023-04-06T00:07:10.382Z,101251.56
2023-04-06T00:09:37.905Z,101258.59
2023-04-06T00:12:05.902Z,101254.41
2023-04-06T00:14:34.406Z,101250.19
2023-04-06T00:17:03.495Z,101250.19
2023-04-06T00:19:31.422Z,101251.13
2023-04-06T00:21:59.096Z,101250.25
2023-04-06T00:24:26.744Z,101250.38
2023-04-06T00:26:54.932Z,101242.66
2023-04-06T00:29:22.535Z,101234.91
2023-04-06T00:31:50.503Z,101237.66
2023-04-06T00:34:19.406Z,101231.59
2023-04-06T00:36:47.003Z,101232.50
2023-04-06T00:39:14.564Z,101233.44
2023-04-06T00:41:51.282Z,101229.03
2023-04-06T00:47:15.924Z,101225.81
2023-04-06T00:49:48.724Z,101224.19
2023-04-06T00:52:16.991Z,101223.38
2023-04-06T00:54:47.561Z,101213.88
2023-04-06T00:57:17.933Z,101211.34
2023-04-06T00:59:47.760Z,101213.19
2023-04-06T01:02:15.906Z,101209.84
2023-04-06T01:04:49.972Z,101209.91
2023-04-06T01:07:26.512Z,101202.19
2023-04-06T01:10:05.929Z,101201.38
2023-04-06T01:12:37.090Z,101199.72
2023-04-06T01:15:09.150Z,101200.66
2023-04-06T01:17:39.973Z,101195.41
2023-04-06T01:20:14.455Z,101190.19
2023-04-06T01:22:44.915Z,101191.91
2023-04-06T01:25:13.924Z,101195.41
2023-04-06T01:27:49.421Z,101188.47
2023-04-06T01:30:24.280Z,101187.72
2023-04-06T01:32:57.066Z,101185.97
2023-04-06T01:35:38.367Z,101180.84
2023-04-06T01:41:37.911Z,101175.81
2023-04-06T01:44:06.895Z,101171.53
2023-04-06T01:46:34.617Z,101169.88
2023-04-06T01:49:04.901Z,101165.56
2023-04-06T01:51:40.420Z,101163.00
2023-04-06T01:54:13.929Z,101168.34
2023-04-06T01:56:57.929Z,101168.34
2023-04-06T01:59:31.587Z,101163.97
2023-04-06T02:02:02.022Z,101163.06
2023-04-06T02:04:31.306Z,101170.06
2023-04-06T02:07:09.159Z,101169.25
2023-04-06T02:09:40.913Z,101159.75
2023-04-06T02:12:13.996Z,101164.19
2023-04-06T02:14:42.912Z,101161.66
2023-04-06T02:17:12.020Z,101169.50
2023-04-06T02:19:39.532Z,101159.88
2023-04-06T02:22:07.077Z,101158.13
2023-04-06T02:24:34.910Z,101155.50
2023-04-06T02:27:07.766Z,101165.97
2023-04-06T02:29:35.396Z,101159.91
2023-04-06T02:32:03.931Z,101165.22
2023-04-06T02:34:34.575Z,101165.34
2023-04-06T02:37:02.477Z,101162.75
2023-04-06T02:39:31.415Z,101156.69
2023-04-06T02:41:59.801Z,101157.53
2023-04-06T02:44:29.139Z,101156.75
2023-04-06T02:46:56.990Z,101161.19
2023-04-06T02:49:26.706Z,101155.13
2023-04-06T02:51:57.622Z,101156.06
2023-04-06T02:54:30.241Z,101156.09
2023-04-06T02:56:58.294Z,101151.81
2023-04-06T02:59:36.038Z,101141.41
2023-04-06T03:02:11.011Z,101150.97
2023-04-06T03:04:38.979Z,101154.47
2023-04-06T03:07:13.339Z,101152.72
2023-04-06T03:09:41.528Z,101146.63
2023-04-06T03:12:10.061Z,101146.72
2023-04-06T03:14:56.804Z,101141.59
2023-04-06T03:17:24.417Z,101152.06
2023-04-06T03:19:51.996Z,101146.88
2023-04-06T03:22:21.745Z,101148.66
2023-04-06T03:24:49.745Z,101150.34
2023-04-06T03:27:18.362Z,101153.03
2023-04-06T03:29:47.914Z,101152.22
2023-04-06T03:32:22.792Z,101150.56
2023-04-06T03:34:50.432Z,101154.09
2023-04-06T03:37:17.981Z,101160.16
2023-04-06T03:39:53.919Z,101155.00
2023-04-06T03:42:26.905Z,101155.06
2023-04-06T03:45:01.863Z,101142.03
2023-04-06T03:47:31.179Z,101145.56
2023-04-06T03:50:04.068Z,101149.09
2023-04-06T03:52:35.018Z,101150.91
2023-04-06T03:55:07.883Z,101150.94
2023-04-06T03:57:38.360Z,101152.69
2023-04-06T04:00:07.007Z,101155.44
2023-04-06T04:02:41.557Z,101147.69
2023-04-06T04:05:09.997Z,101147.75
2023-04-06T04:07:38.968Z,101160.88
2023-04-06T04:10:09.016Z,101152.28
2023-04-06T04:12:37.120Z,101157.56
2023-04-06T04:15:05.482Z,101148.88
2023-04-06T04:17:33.443Z,101146.31
2023-04-06T04:20:02.405Z,101160.22
2023-04-06T04:22:30.348Z,101153.34
2023-04-06T04:24:58.201Z,101152.53
2023-04-06T04:27:27.017Z,101151.78
2023-04-06T04:29:55.901Z,101154.44
2023-04-06T04:32:28.083Z,101154.56
2023-04-06T04:34:57.276Z,101152.81
2023-04-06T04:37:37.136Z,101153.75
2023-04-06T04:40:07.253Z,101155.50
2023-04-06T04:42:45.881Z,101146.94
2023-04-06T04:45:21.805Z,101148.72
2023-04-06T04:47:49.653Z,101143.63
2023-04-06T04:50:19.105Z,101142.78
2023-04-06T04:52:51.619Z,101149.84
2023-04-06T04:55:23.219Z,101143.78
2023-04-06T04:57:56.318Z,101147.31
2023-04-06T05:00:32.613Z,101150.00
2023-04-06T05:03:02.433Z,101145.69
2023-04-06T05:05:32.659Z,101149.25
2023-04-06T05:08:03.953Z,101147.59
2023-04-06T05:10:45.272Z,101149.34
2023-04-06T05:13:13.289Z,101144.19
2023-04-06T05:15:41.173Z,101148.56
2023-04-06T05:18:22.383Z,101151.25
2023-04-06T05:20:50.731Z,101152.16
2023-04-06T05:23:19.724Z,101149.53
2023-04-06T05:25:48.638Z,101156.53
2023-04-06T05:28:22.092Z,101153.06
2023-04-06T05:30:49.760Z,101147.84
2023-04-06T05:33:18.175Z,101149.47
2023-04-06T05:36:02.138Z,101139.91
2023-04-06T05:38:32.121Z,101136.41
2023-04-06T05:41:06.467Z,101141.63
2023-04-06T05:43:36.973Z,101132.91
2023-04-06T05:46:06.476Z,101134.66
2023-04-06T05:48:34.381Z,101141.50
2023-04-06T05:51:07.024Z,101145.75
2023-04-06T05:53:44.324Z,101138.66
2023-04-06T05:56:12.441Z,101145.47
2023-04-06T05:59:04.840Z,101145.41
2023-04-06T06:01:33.321Z,101139.16
2023-04-06T06:04:02.492Z,101141.66
2023-04-06T06:06:33.515Z,101139.75
2023-04-06T06:09:12.388Z,101143.91
2023-04-06T06:11:45.894Z,101140.34
2023-04-06T06:14:24.264Z,101144.59
2023-04-06T06:16:51.812Z,101139.22
2023-04-06T06:19:20.293Z,101139.13
2023-04-06T06:21:50.731Z,101145.03
2023-04-06T06:24:19.947Z,101144.00
2023-04-06T06:26:49.914Z,101149.09
2023-04-06T06:29:20.453Z,101140.88
2023-04-06T06:31:48.055Z,101140.31
2023-04-06T06:34:15.888Z,101139.75
2023-04-06T06:36:48.350Z,101133.75
2023-04-06T06:39:20.848Z,101131.97
2023-04-06T06:41:51.848Z,101132.78
2023-04-06T06:44:24.226Z,101138.09
2023-04-06T06:46:53.976Z,101136.34
2023-04-06T06:49:21.968Z,101133.78
2023-04-06T06:51:50.004Z,101126.97
2023-04-06T06:54:19.747Z,101123.47
2023-04-06T06:56:49.977Z,101130.69
2023-04-06T06:59:19.451Z,101133.31
2023-04-06T07:01:47.932Z,101121.00
2023-04-06T07:04:16.065Z,101124.47
2023-04-06T07:06:43.658Z,101125.44
2023-04-06T07:09:11.250Z,101126.53
2023-04-06T07:11:40.701Z,101122.25
2023-04-06T07:14:08.800Z,101121.75
2023-04-06T07:16:36.842Z,101124.78
2023-04-06T07:19:04.766Z,101117.25
2023-04-06T07:21:32.432Z,101120.22
2023-04-06T07:24:00.084Z,101117.97
2023-04-06T07:26:27.921Z,101112.84
2023-04-06T07:28:57.103Z,101110.09
2023-04-06T07:31:56.921Z,101108.22
2023-04-06T07:37:18.093Z,101104.78
2023-04-06T07:39:47.425Z,101102.44
2023-04-06T07:42:18.918Z,101101.50
2023-04-06T07:44:50.648Z,101098.84
2023-04-06T07:47:19.276Z,101098.38
2023-04-06T07:49:47.139Z,101095.91
2023-04-06T07:52:15.347Z,101097.47
2023-04-06T07:54:44.029Z,101104.16
2023-04-06T07:57:14.913Z,101097.13
2023-04-06T07:59:45.646Z,101100.34
2023-04-06T08:02:14.708Z,101102.72
2023-04-06T08:04:46.145Z,101098.19
2023-04-06T08:07:14.290Z,101100.00
2023-04-06T08:09:42.287Z,101096.81
2023-04-06T08:12:10.162Z,101101.34
2023-04-06T08:14:37.775Z,101089.78
2023-04-06T08:17:06.587Z,101088.53
2023-04-06T08:19:35.575Z,101097.28
2023-04-06T08:22:03.367Z,101087.78
2023-04-06T08:24:33.973Z,101093.50
2023-04-06T08:27:01.619Z,101096.84
2023-04-06T08:29:29.425Z,101089.84
2023-04-06T08:31:57.299Z,101095.19
2023-04-06T08:34:25.028Z,101093.09
2023-04-06T08:36:54.076Z,101089.50
2023-04-06T08:39:26.188Z,101081.56
2023-04-06T08:41:57.856Z,101091.94
2023-04-06T08:44:26.056Z,101084.25
2023-04-06T08:46:54.046Z,101083.38
2023-04-06T08:49:22.903Z,101079.50
2023-04-06T08:51:51.414Z,101077.69
2023-04-06T08:54:20.979Z,101080.22
2023-04-06T08:56:50.297Z,101079.56
2023-04-06T08:59:18.933Z,101071.22
2023-04-06T09:01:47.691Z,101074.81
2023-04-06T09:04:16.009Z,101071.94
2023-04-06T09:06:44.902Z,101075.41
2023-04-06T09:09:12.658Z,101084.69
2023-04-06T09:11:49.974Z,101077.13
2023-04-06T09:14:36.142Z,101077.53
2023-04-06T09:17:06.020Z,101078.81
2023-04-06T09:19:34.977Z,101076.22
2023-04-06T09:22:05.535Z,101075.34
2023-04-06T09:24:42.434Z,101060.38
2023-04-06T09:27:11.316Z,101067.22
2023-04-06T09:29:39.925Z,101063.72
2023-04-06T09:32:11.320Z,101063.56
2023-04-06T09:34:39.594Z,101063.88
2023-04-06T09:37:17.187Z,101050.44
2023-04-06T09:39:45.890Z,101049.91
2023-04-06T09:42:26.700Z,101041.00
2023-04-06T09:44:54.536Z,101047.91
2023-04-06T09:47:24.811Z,101040.38
2023-04-06T09:49:57.931Z,101036.56
2023-04-06T09:52:33.534Z,101040.97
2023-04-06T09:55:04.985Z,101040.28
2023-04-06T09:57:39.985Z,101042.94
2023-04-06T10:00:12.975Z,101044.47
2023-04-06T10:02:46.351Z,101039.63
2023-04-06T10:05:22.914Z,101032.97
2023-04-06T10:08:00.212Z,101033.94
2023-04-06T10:10:29.587Z,101034.25
2023-04-06T10:12:59.461Z,101025.25
2023-04-06T10:15:54.129Z,101026.94
2023-04-06T10:18:22.575Z,101022.72
2023-04-06T10:20:53.367Z,101029.75
2023-04-06T10:23:24.795Z,101029.63
2023-04-06T10:25:57.057Z,101023.56
2023-04-06T10:28:32.139Z,101030.84
2023-04-06T10:31:00.940Z,101019.50
2023-04-06T10:33:58.449Z,101020.47
2023-04-06T10:36:27.484Z,101020.47
2023-04-06T10:39:00.140Z,101024.00
2023-04-06T10:41:35.026Z,101027.19
2023-04-06T10:44:04.660Z,101023.13
2023-04-06T10:46:33.355Z,101022.00
2023-04-06T10:49:13.223Z,101022.53
2023-04-06T10:51:41.416Z,101020.44
2023-04-06T10:54:09.421Z,101017.88
2023-04-06T10:56:39.735Z,101010.59
2023-04-06T10:59:09.242Z,101012.75
2023-04-06T11:01:37.511Z,101015.09
2023-04-06T11:04:05.565Z,101002.28
2023-04-06T11:06:33.542Z,100999.19
2023-04-06T11:09:01.220Z,101002.09
2023-04-06T11:14:23.803Z,100994.75
2023-04-06T11:16:52.606Z,101007.81
2023-04-06T11:19:46.956Z,100997.44
2023-04-06T11:22:16.334Z,100997.81
2023-04-06T11:24:44.083Z,100998.16
2023-04-06T11:27:11.921Z,100997.78
2023-04-06T11:29:41.756Z,100993.16
2023-04-06T11:32:09.517Z,100990.16
2023-04-06T11:34:39.550Z,100990.41
2023-04-06T11:37:10.137Z,100994.31
2023-04-06T11:39:41.276Z,100988.56
2023-04-06T11:42:09.584Z,100989.66
2023-04-06T11:44:39.906Z,100982.06
2023-04-06T11:47:11.943Z,100978.66
2023-04-06T11:49:40.980Z,100978.19
2023-04-06T11:52:17.434Z,100978.72
2023-04-06T11:54:45.137Z,100972.47
2023-04-06T11:57:14.307Z,100976.19
2023-04-06T11:59:41.958Z,100972.84
2023-04-06T12:02:10.969Z,100972.75
2023-04-06T12:04:40.050Z,100977.50
2023-04-06T12:07:07.995Z,100972.47
2023-04-06T12:09:36.909Z,100966.34
2023-04-06T12:12:04.758Z,100961.03
2023-04-06T12:14:32.998Z,100961.38
2023-04-06T12:17:01.340Z,100968.97
2023-04-06T12:19:34.012Z,100958.03
2023-04-06T12:22:05.303Z,100968.00
2023-04-06T12:24:33.488Z,100968.41
2023-04-06T12:27:09.419Z,100969.69
2023-04-06T12:29:38.554Z,100954.06
2023-04-06T12:32:06.274Z,100961.06
2023-04-06T12:34:35.874Z,100955.31
2023-04-06T12:37:03.471Z,100957.91
2023-04-06T12:39:31.808Z,100951.94
2023-04-06T12:42:00.971Z,100945.31
2023-04-06T12:44:29.351Z,100955.63
2023-04-06T12:46:57.959Z,100951.72
2023-04-06T12:49:26.439Z,100951.50
2023-04-06T12:51:56.315Z,100950.13
2023-04-06T12:54:23.896Z,100947.06
2023-04-06T12:56:51.482Z,100939.25
2023-04-06T12:59:19.162Z,100942.50
2023-04-06T13:01:46.851Z,100947.59
2023-04-06T13:04:14.569Z,100940.38
2023-04-06T13:06:43.046Z,100935.09
2023-04-06T13:09:13.952Z,100931.31
2023-04-06T13:11:42.327Z,100933.56
2023-04-06T13:14:10.074Z,100929.25
2023-04-06T13:16:38.585Z,100921.91
2023-04-06T13:19:06.279Z,100925.41
2023-04-06T13:21:34.323Z,100931.50
2023-04-06T13:24:02.017Z,100918.34
2023-04-06T13:26:30.977Z,100928.06
2023-04-06T13:29:01.745Z,100922.91
2023-04-06T13:31:29.291Z,100922.47
2023-04-06T13:33:57.594Z,100917.13
2023-04-06T13:36:25.651Z,100911.78
2023-04-06T13:38:56.132Z,100922.41
2023-04-06T13:41:26.410Z,100920.34
2023-04-06T13:43:55.590Z,100912.91
2023-04-06T13:46:25.059Z,100913.97
2023-04-06T13:48:52.843Z,100911.09
2023-04-06T13:51:20.968Z,100912.59
2023-04-06T13:53:51.175Z,100913.78
2023-04-06T13:56:19.330Z,100917.13
2023-04-06T13:58:46.896Z,100903.75
2023-04-06T14:01:15.927Z,100905.63
2023-04-06T14:03:46.411Z,100903.13
2023-04-06T14:06:29.522Z,100905.69
2023-04-06T14:08:58.580Z,100904.28
2023-04-06T14:11:27.177Z,100903.34
2023-04-06T14:14:20.314Z,100901.31
2023-04-06T14:16:49.595Z,100898.19
2023-04-06T14:19:19.756Z,100907.25
2023-04-06T14:21:47.930Z,100897.66
2023-04-06T14:24:16.845Z,100907.84
2023-04-06T14:26:45.179Z,100896.16
2023-04-06T14:29:13.364Z,100893.88
2023-04-06T14:31:41.066Z,100896.84
2023-04-06T14:34:09.949Z,100896.69
2023-04-06T14:36:39.172Z,100893.88
2023-04-06T14:39:08.070Z,100899.06
2023-04-06T14:41:36.231Z,100891.44
2023-04-06T14:44:04.673Z,100893.56
2023-04-06T14:46:34.489Z,100891.72
2023-04-06T14:49:02.232Z,100886.31
2023-04-06T14:51:32.209Z,100880.75
2023-04-06T14:54:03.785Z,100884.09
2023-04-06T14:56:32.135Z,100880.03
2023-04-06T14:59:00.402Z,100885.25
2023-04-06T15:01:29.550Z,100885.50
2023-04-06T15:03:57.357Z,100878.31
2023-04-06T15:06:25.028Z,100880.66
2023-04-06T15:08:55.494Z,100872.09
2023-04-06T15:11:24.019Z,100877.75
2023-04-06T15:13:54.013Z,100882.88
2023-04-06T15:16:21.631Z,100881.50
2023-04-06T15:18:49.374Z,100879.66
2023-04-06T15:21:17.008Z,100879.38
2023-04-06T15:23:44.739Z,100880.97
2023-04-06T15:26:15.057Z,100886.84
2023-04-06T15:28:44.677Z,100879.19
2023-04-06T15:31:28.325Z,100888.00
2023-04-06T15:34:04.025Z,100883.63
2023-04-06T15:36:31.950Z,100882.69
2023-04-06T15:39:01.019Z,100880.34
2023-04-06T15:41:31.935Z,100880.34
2023-04-06T15:43:59.946Z,100888.19
2023-04-06T15:46:28.911Z,100884.84
2023-04-06T15:48:57.110Z,100884.69
2023-04-06T15:51:26.128Z,100889.25
2023-04-06T15:53:53.841Z,100879.88
2023-04-06T15:56:21.636Z,100876.13
2023-04-06T15:58:50.793Z,100879.25
2023-04-06T16:01:20.004Z,100877.56
2023-04-06T16:03:48.222Z,100871.22
2023-04-06T16:06:15.942Z,100874.06
2023-04-06T16:08:43.572Z,100881.25
2023-04-06T16:11:11.684Z,100878.41
2023-04-06T16:13:39.577Z,100883.78
2023-04-06T16:16:09.759Z,100879.75
2023-04-06T16:18:37.398Z,100888.72
2023-04-06T16:21:05.374Z,100879.69
2023-04-06T16:23:34.601Z,100885.41
2023-04-06T16:26:03.019Z,100882.44
2023-04-06T16:28:31.364Z,100879.28
2023-04-06T16:31:02.468Z,100882.38
2023-04-06T16:33:31.372Z,100885.72
2023-04-06T16:35:59.088Z,100881.41
2023-04-06T16:38:31.543Z,100885.38
2023-04-06T16:41:02.747Z,100895.91
2023-04-06T16:43:30.968Z,100885.91
2023-04-06T16:45:59.587Z,100892.53
2023-04-06T16:48:28.037Z,100887.91
2023-04-06T16:50:57.265Z,100889.06
2023-04-06T16:53:24.936Z,100885.25
2023-04-06T16:55:52.501Z,100892.44
2023-04-06T16:58:20.082Z,100900.72
2023-04-06T17:00:47.648Z,100894.84
2023-04-06T17:03:15.645Z,100898.78
2023-04-06T17:05:45.152Z,100895.41
2023-04-06T17:08:15.108Z,100901.88
2023-04-06T17:13:40.163Z,100911.00
2023-04-06T17:16:08.266Z,100906.66
2023-04-06T17:18:36.304Z,100914.38
2023-04-06T17:21:06.949Z,100918.03
2023-04-06T17:23:35.925Z,100923.03
2023-04-06T17:26:05.711Z,100926.84
2023-04-06T17:28:35.525Z,100926.81
2023-04-06T17:31:03.126Z,100930.59
2023-04-06T17:33:32.425Z,100936.03
2023-04-06T17:35:59.976Z,100940.34
2023-04-06T17:38:27.867Z,100939.44
2023-04-06T17:40:56.800Z,100948.50
2023-04-06T17:43:24.515Z,100950.03
2023-04-06T17:45:52.430Z,100951.41
2023-04-06T17:48:21.008Z,100954.22
2023-04-06T17:50:48.955Z,100951.50
2023-04-06T17:53:18.742Z,100956.16
2023-04-06T17:55:47.525Z,100959.34
2023-04-06T17:58:16.824Z,100964.72
2023-04-06T18:00:45.017Z,100969.53
2023-04-06T18:03:12.616Z,100968.00
2023-04-06T18:05:40.516Z,100964.69
2023-04-06T18:08:08.096Z,100976.06
2023-04-06T18:10:39.995Z,100974.63
2023-04-06T18:13:08.485Z,100974.88
2023-04-06T18:15:38.325Z,100977.69
2023-04-06T18:18:07.306Z,100976.53
2023-04-06T18:20:34.886Z,100974.38
2023-04-06T18:23:02.484Z,100971.22
2023-04-06T18:25:29.989Z,100972.31
2023-04-06T18:27:57.525Z,100972.22
2023-04-06T18:30:25.399Z,100974.41
2023-04-06T18:32:54.350Z,100963.44
2023-04-06T18:35:25.951Z,100968.38
2023-04-06T18:37:55.972Z,100969.59
2023-04-06T18:40:34.443Z,100971.28
2023-04-06T18:43:03.265Z,100974.41
2023-04-06T18:45:33.106Z,100969.34
2023-04-06T18:48:03.258Z,100967.06
2023-04-06T18:50:31.631Z,100972.00
2023-04-06T18:52:59.182Z,100975.25
2023-04-06T18:55:27.089Z,100976.81
2023-04-06T18:57:54.986Z,100981.28
2023-04-06T19:00:22.539Z,100982.47
2023-04-06T19:02:50.192Z,100976.56
2023-04-06T19:05:22.118Z,100988.13
2023-04-06T19:07:52.391Z,100983.06
2023-04-06T19:10:21.305Z,100985.22
2023-04-06T19:12:52.296Z,100992.94
2023-04-06T19:15:20.393Z,100991.47
2023-04-06T19:17:48.044Z,100992.53
2023-04-06T19:20:15.774Z,100984.72
2023-04-06T19:22:45.637Z,100987.50
2023-04-06T19:25:13.894Z,100994.22
2023-04-06T19:27:41.918Z,100995.72
2023-04-06T19:30:11.998Z,100993.31
2023-04-06T19:32:41.126Z,100988.22
2023-04-06T19:35:09.506Z,100983.88
2023-04-06T19:37:37.950Z,100992.56
2023-04-06T19:40:10.383Z,100989.44
2023-04-06T19:42:38.626Z,100984.97
2023-04-06T19:45:08.038Z,100976.84
2023-04-06T19:47:35.858Z,100984.09
2023-04-06T19:50:03.605Z,100981.53
2023-04-06T19:52:32.562Z,100974.78
2023-04-06T19:55:00.522Z,100972.03
2023-04-06T19:57:30.056Z,100977.06
2023-04-06T19:59:57.782Z,100979.47
2023-04-06T20:02:25.537Z,100972.81
2023-04-06T20:04:53.347Z,100960.41
2023-04-06T20:07:20.973Z,100959.81
2023-04-06T20:09:48.561Z,100956.88
2023-04-06T20:12:16.144Z,100963.25
2023-04-06T20:14:45.090Z,100958.56
2023-04-06T20:17:12.629Z,100957.09
2023-04-06T20:19:40.197Z,100959.00
2023-04-06T20:22:07.787Z,100960.22
2023-04-06T20:24:35.407Z,100957.06
2023-04-06T20:27:03.074Z,100955.44
2023-04-06T20:29:30.664Z,100957.44
2023-04-06T20:32:01.326Z,100957.78
2023-04-06T20:34:29.658Z,100944.97
2023-04-06T20:36:57.940Z,100954.00
2023-04-06T20:39:27.241Z,100948.72
2023-04-06T20:41:54.939Z,100942.97
2023-04-06T20:44:22.563Z,100945.56
2023-04-06T20:46:50.273Z,100943.03
2023-04-06T20:49:21.990Z,100942.91
2023-04-06T20:51:49.962Z,100936.66
2023-04-06T20:54:17.685Z,100938.19
2023-04-06T20:56:46.166Z,100935.03
2023-04-06T20:59:13.800Z,100934.69
2023-04-06T21:01:41.779Z,100930.31
2023-04-06T21:04:10.098Z,100931.09
2023-04-06T21:06:40.174Z,100932.25
2023-04-06T21:09:07.896Z,100926.75
2023-04-06T21:11:35.421Z,100920.19
2023-04-06T21:14:03.255Z,100924.44
2023-04-06T21:16:30.854Z,100917.44
2023-04-06T21:18:59.354Z,100924.63
2023-04-06T21:21:26.878Z,100920.09
2023-04-06T21:23:56.422Z,100914.28
2023-04-06T21:26:25.039Z,100916.94
2023-04-06T21:28:52.576Z,100913.22
2023-04-06T21:31:21.400Z,100910.44
2023-04-06T21:33:49.214Z,100909.72
2023-04-06T21:36:16.969Z,100911.53
2023-04-06T21:38:44.702Z,100906.50
2023-04-06T21:41:13.777Z,100904.66
2023-04-06T21:43:41.348Z,100905.59
2023-04-06T21:46:08.918Z,100903.78
2023-04-06T21:48:36.485Z,100904.75
2023-04-06T21:51:04.616Z,100902.47
2023-04-06T21:53:32.537Z,100899.06
2023-04-06T21:56:00.814Z,100901.16
2023-04-06T21:58:29.720Z,100896.94
2023-04-06T22:00:58.423Z,100893.44
2023-04-06T22:03:26.282Z,100895.84
2023-04-06T22:05:54.063Z,100889.84
2023-04-06T22:08:33.691Z,100892.47
2023-04-06T22:11:02.007Z,100892.09
2023-04-06T22:13:32.711Z,100888.28
2023-04-06T22:16:00.282Z,100890.91
2023-04-06T22:18:28.131Z,100884.41
2023-04-06T22:20:56.072Z,100885.72
2023-04-06T22:23:23.794Z,100882.59
2023-04-06T22:25:51.476Z,100877.88
2023-04-06T22:28:19.138Z,100882.84
2023-04-06T22:30:50.044Z,100884.03
2023-04-06T22:33:17.953Z,100883.38
2023-04-06T22:38:37.981Z,100876.59
2023-04-06T22:41:07.167Z,100878.72
2023-04-06T22:43:36.027Z,100876.41
2023-04-06T22:46:05.472Z,100885.50
2023-04-06T22:48:33.059Z,100873.88
2023-04-06T22:51:01.051Z,100872.22
2023-04-06T22:53:28.947Z,100870.00
2023-04-06T22:55:56.632Z,100861.50
2023-04-06T22:58:24.973Z,100862.34
2023-04-06T23:00:53.027Z,100857.50
2023-04-06T23:03:23.018Z,100851.47
2023-04-06T23:05:51.950Z,100856.78
2023-04-06T23:08:23.365Z,100853.28
2023-04-06T23:10:52.984Z,100854.69
2023-04-06T23:13:20.502Z,100856.16
2023-04-06T23:15:48.962Z,100859.66
2023-04-06T23:18:16.866Z,100852.78
2023-04-06T23:20:46.017Z,100850.00
2023-04-06T23:23:14.034Z,100854.38
2023-04-06T23:25:41.561Z,100853.00
2023-04-06T23:28:09.288Z,100855.88
2023-04-06T23:30:36.819Z,100858.78
2023-04-06T23:33:05.494Z,100853.75
2023-04-06T23:35:33.466Z,100850.69
2023-04-06T23:38:02.739Z,100851.75
2023-04-06T23:40:30.405Z,100851.75
2023-04-06T23:42:58.020Z,100852.38
2023-04-06T23:45:25.931Z,100855.53
2023-04-06T23:47:54.403Z,100850.06
2023-04-06T23:50:22.144Z,100847.22
2023-04-06T23:52:50.540Z,100843.09
2023-04-06T23:55:19.910Z,100845.41
2023-04-06T23:57:49.153Z,100846.56
